EHEH/EIN METAR and TAF weather

Enter ICAO airport designator
Station Type Date Time Source
EHEH METAR 2022/05/24 10:55 UTC NOAA

EHEH 241055Z AUTO 25011KT 210V280 9999 FEW051 SCT065 18/09 Q1006 BLU TEMPO 4500 SHRA SCT013 SCT020CB


Station Type Date Time Source
EHEH Decoded METAR 2022/05/24 10:55 UTC NOAA

Eindhoven, Netherlands (EHEH) 51-27N 005-25E 28M
May 24, 2022 - 06:55 AM EDT / 2022.05.24 1055 UTC
Wind: from the WSW (250 degrees) at 13 MPH (11 KT) (direction variable):0
Visibility: greater than 7 mile(s):0
Sky conditions: partly cloudy
Weather: Cumulonimbus clouds observed
Temperature: 64 F (18 C)
Dew Point: 48 F (9 C)
Relative Humidity: 55%
Pressure (altimeter): 29.71 in. Hg (1006 hPa)
ob: EHEH 241055Z AUTO 25011KT 210V280 9999 FEW051 SCT065 18/09 Q1006 BLU TEMPO 4500 SHRA SCT013 SCT020CB
cycle: 11

Station Type Date Time Source
EHEH TAF 2022/05/24 06:31 UTC NOAA

TAF EHEH 240501Z 2406/2512 21010KT 9999 BKN015
BECMG 2406/2408 BKN020
TEMPO 2408/2421 4500 SHRA SCT008 SCT020CB PROB40
TEMPO 2410/2419 22012G22KT 3000 TSRA SCT006 SCT015CB PROB30
TEMPO 2501/2505 4500 BR
TEMPO 2505/2508 BKN008

Example: see airport list